sensor_id;sensor_type;location;lat;lon;timestamp;temperature;humidity
37530;DHT22;23374;52.758;6.872;2023-04-07T00:00:15;7.70;99.90
37530;DHT22;23374;52.758;6.872;2023-04-07T00:02:35;7.80;99.90
37530;DHT22;23374;52.758;6.872;2023-04-07T00:04:56;7.80;99.90
37530;DHT22;23374;52.758;6.872;2023-04-07T00:07:18;7.80;99.90
37530;DHT22;23374;52.758;6.872;2023-04-07T00:09:38;7.80;99.90
37530;DHT22;23374;52.758;6.872;2023-04-07T00:11:58;7.80;99.90
37530;DHT22;23374;52.758;6.872;2023-04-07T00:14:21;7.80;99.90
37530;DHT22;23374;52.758;6.872;2023-04-07T00:16:41;7.80;99.90
37530;DHT22;23374;52.758;6.872;2023-04-07T00:19:01;7.80;99.90
37530;DHT22;23374;52.758;6.872;2023-04-07T00:21:22;7.80;99.90
37530;DHT22;23374;52.758;6.872;2023-04-07T00:23:43;7.80;99.90
37530;DHT22;23374;52.758;6.872;2023-04-07T00:26:04;7.80;99.90
37530;DHT22;23374;52.758;6.872;2023-04-07T00:28:25;7.80;99.90
37530;DHT22;23374;52.758;6.872;2023-04-07T00:30:45;7.80;99.90
37530;DHT22;23374;52.758;6.872;2023-04-07T00:33:05;7.80;99.90
37530;DHT22;23374;52.758;6.872;2023-04-07T00:35:26;7.80;99.90
37530;DHT22;23374;52.758;6.872;2023-04-07T00:37:47;7.80;99.90
37530;DHT22;23374;52.758;6.872;2023-04-07T00:40:08;7.80;99.90
37530;DHT22;23374;52.758;6.872;2023-04-07T00:42:29;7.80;99.90
37530;DHT22;23374;52.758;6.872;2023-04-07T00:44:49;7.80;99.90
37530;DHT22;23374;52.758;6.872;2023-04-07T00:47:10;7.80;99.90
37530;DHT22;23374;52.758;6.872;2023-04-07T00:49:31;7.80;99.90
37530;DHT22;23374;52.758;6.872;2023-04-07T00:51:52;7.80;99.90
37530;DHT22;23374;52.758;6.872;2023-04-07T00:54:12;7.80;99.90
37530;DHT22;23374;52.758;6.872;2023-04-07T00:56:33;7.80;99.90
37530;DHT22;23374;52.758;6.872;2023-04-07T00:58:55;7.80;99.90
37530;DHT22;23374;52.758;6.872;2023-04-07T01:01:20;7.80;99.90
37530;DHT22;23374;52.758;6.872;2023-04-07T01:03:57;7.80;99.90
37530;DHT22;23374;52.758;6.872;2023-04-07T01:06:23;7.80;99.90
37530;DHT22;23374;52.758;6.872;2023-04-07T01:09:00;7.80;99.90
37530;DHT22;23374;52.758;6.872;2023-04-07T01:13:21;7.80;99.90
37530;DHT22;23374;52.758;6.872;2023-04-07T01:15:44;7.80;99.90
37530;DHT22;23374;52.758;6.872;2023-04-07T01:18:23;7.70;99.90
37530;DHT22;23374;52.758;6.872;2023-04-07T01:20:45;7.80;99.90
37530;DHT22;23374;52.758;6.872;2023-04-07T01:23:16;7.70;99.90
37530;DHT22;23374;52.758;6.872;2023-04-07T01:27:41;7.80;99.90
37530;DHT22;23374;52.758;6.872;2023-04-07T01:30:04;7.80;99.90
37530;DHT22;23374;52.758;6.872;2023-04-07T01:32:29;7.70;99.90
37530;DHT22;23374;52.758;6.872;2023-04-07T01:34:51;7.70;99.90
37530;DHT22;23374;52.758;6.872;2023-04-07T01:37:14;7.70;99.90
37530;DHT22;23374;52.758;6.872;2023-04-07T01:39:36;7.70;99.90
37530;DHT22;23374;52.758;6.872;2023-04-07T01:41:58;7.70;99.90
37530;DHT22;23374;52.758;6.872;2023-04-07T01:44:21;7.70;99.90
37530;DHT22;23374;52.758;6.872;2023-04-07T01:46:43;7.70;99.90
37530;DHT22;23374;52.758;6.872;2023-04-07T01:49:04;7.60;99.90
37530;DHT22;23374;52.758;6.872;2023-04-07T01:51:26;7.60;99.90
37530;DHT22;23374;52.758;6.872;2023-04-07T01:53:48;7.70;99.90
37530;DHT22;23374;52.758;6.872;2023-04-07T01:56:09;7.60;99.90
37530;DHT22;23374;52.758;6.872;2023-04-07T01:58:30;7.70;99.90
37530;DHT22;23374;52.758;6.872;2023-04-07T02:00:50;7.70;99.90
37530;DHT22;23374;52.758;6.872;2023-04-07T02:04:31;7.60;99.90
37530;DHT22;23374;52.758;6.872;2023-04-07T02:07:02;7.70;99.90
37530;DHT22;23374;52.758;6.872;2023-04-07T02:09:26;7.70;99.90
37530;DHT22;23374;52.758;6.872;2023-04-07T02:11:49;7.70;99.90
37530;DHT22;23374;52.758;6.872;2023-04-07T02:14:13;7.60;99.90
37530;DHT22;23374;52.758;6.872;2023-04-07T02:16:37;7.60;99.90
37530;DHT22;23374;52.758;6.872;2023-04-07T02:18:58;7.60;99.90
37530;DHT22;23374;52.758;6.872;2023-04-07T02:21:20;7.60;99.90
37530;DHT22;23374;52.758;6.872;2023-04-07T02:23:40;7.60;99.90
37530;DHT22;23374;52.758;6.872;2023-04-07T02:26:01;7.60;99.90
37530;DHT22;23374;52.758;6.872;2023-04-07T02:28:21;7.60;99.90
37530;DHT22;23374;52.758;6.872;2023-04-07T02:30:42;7.60;99.90
37530;DHT22;23374;52.758;6.872;2023-04-07T02:33:02;7.60;99.90
37530;DHT22;23374;52.758;6.872;2023-04-07T02:35:23;7.60;99.90
37530;DHT22;23374;52.758;6.872;2023-04-07T02:37:44;7.60;99.90
37530;DHT22;23374;52.758;6.872;2023-04-07T02:40:06;7.60;99.90
37530;DHT22;23374;52.758;6.872;2023-04-07T02:42:27;7.60;99.90
37530;DHT22;23374;52.758;6.872;2023-04-07T02:44:47;7.50;99.90
37530;DHT22;23374;52.758;6.872;2023-04-07T02:47:08;7.50;99.90
37530;DHT22;23374;52.758;6.872;2023-04-07T02:49:29;7.50;99.90
37530;DHT22;23374;52.758;6.872;2023-04-07T02:51:49;7.50;99.90
37530;DHT22;23374;52.758;6.872;2023-04-07T02:54:09;7.50;99.90
37530;DHT22;23374;52.758;6.872;2023-04-07T02:56:30;7.50;99.90
37530;DHT22;23374;52.758;6.872;2023-04-07T02:58:51;7.50;99.90
37530;DHT22;23374;52.758;6.872;2023-04-07T03:01:12;7.50;99.90
37530;DHT22;23374;52.758;6.872;2023-04-07T03:03:32;7.50;99.90
37530;DHT22;23374;52.758;6.872;2023-04-07T03:05:53;7.50;99.90
37530;DHT22;23374;52.758;6.872;2023-04-07T03:08:13;7.50;99.90
37530;DHT22;23374;52.758;6.872;2023-04-07T03:10:33;7.50;99.90
37530;DHT22;23374;52.758;6.872;2023-04-07T03:12:56;7.50;99.90
37530;DHT22;23374;52.758;6.872;2023-04-07T03:15:17;7.50;99.90
37530;DHT22;23374;52.758;6.872;2023-04-07T03:17:37;7.50;99.90
37530;DHT22;23374;52.758;6.872;2023-04-07T03:19:58;7.50;99.90
37530;DHT22;23374;52.758;6.872;2023-04-07T03:22:18;7.50;99.90
37530;DHT22;23374;52.758;6.872;2023-04-07T03:24:38;7.50;99.90
37530;DHT22;23374;52.758;6.872;2023-04-07T03:27:00;7.50;99.90
37530;DHT22;23374;52.758;6.872;2023-04-07T03:29:21;7.50;99.90
37530;DHT22;23374;52.758;6.872;2023-04-07T03:31:41;7.50;99.90
37530;DHT22;23374;52.758;6.872;2023-04-07T03:34:03;7.50;99.90
37530;DHT22;23374;52.758;6.872;2023-04-07T03:36:23;7.50;99.90
37530;DHT22;23374;52.758;6.872;2023-04-07T03:38:46;7.50;99.90
37530;DHT22;23374;52.758;6.872;2023-04-07T03:41:07;7.50;99.90
37530;DHT22;23374;52.758;6.872;2023-04-07T03:43:27;7.40;99.90
37530;DHT22;23374;52.758;6.872;2023-04-07T03:45:48;7.40;99.90
37530;DHT22;23374;52.758;6.872;2023-04-07T03:48:08;7.40;99.90
37530;DHT22;23374;52.758;6.872;2023-04-07T03:50:31;7.40;99.90
37530;DHT22;23374;52.758;6.872;2023-04-07T03:52:52;7.40;99.90
37530;DHT22;23374;52.758;6.872;2023-04-07T03:55:12;7.40;99.90
37530;DHT22;23374;52.758;6.872;2023-04-07T03:57:32;7.40;99.90
37530;DHT22;23374;52.758;6.872;2023-04-07T03:59:53;7.40;99.90
37530;DHT22;23374;52.758;6.872;2023-04-07T04:02:14;7.40;99.90
37530;DHT22;23374;52.758;6.872;2023-04-07T04:04:35;7.40;99.90
37530;DHT22;23374;52.758;6.872;2023-04-07T04:06:55;7.40;99.90
37530;DHT22;23374;52.758;6.872;2023-04-07T04:09:15;7.40;99.90
37530;DHT22;23374;52.758;6.872;2023-04-07T04:11:36;7.40;99.90
37530;DHT22;23374;52.758;6.872;2023-04-07T04:13:57;7.40;99.90
37530;DHT22;23374;52.758;6.872;2023-04-07T04:16:17;7.40;99.90
37530;DHT22;23374;52.758;6.872;2023-04-07T04:18:38;7.40;99.90
37530;DHT22;23374;52.758;6.872;2023-04-07T04:20:58;7.40;99.90
37530;DHT22;23374;52.758;6.872;2023-04-07T04:23:18;7.40;99.90
37530;DHT22;23374;52.758;6.872;2023-04-07T04:25:39;7.40;99.90
37530;DHT22;23374;52.758;6.872;2023-04-07T04:28:00;7.40;99.90
37530;DHT22;23374;52.758;6.872;2023-04-07T04:30:20;7.40;99.90
37530;DHT22;23374;52.758;6.872;2023-04-07T04:32:40;7.30;99.90
37530;DHT22;23374;52.758;6.872;2023-04-07T04:35:01;7.30;99.90
37530;DHT22;23374;52.758;6.872;2023-04-07T04:37:21;7.30;99.90
37530;DHT22;23374;52.758;6.872;2023-04-07T04:39:41;7.30;99.90
37530;DHT22;23374;52.758;6.872;2023-04-07T04:42:01;7.30;99.90
37530;DHT22;23374;52.758;6.872;2023-04-07T04:44:23;7.30;99.90
37530;DHT22;23374;52.758;6.872;2023-04-07T04:46:43;7.30;99.90
37530;DHT22;23374;52.758;6.872;2023-04-07T04:49:04;7.30;99.90
37530;DHT22;23374;52.758;6.872;2023-04-07T04:51:25;7.30;99.90
37530;DHT22;23374;52.758;6.872;2023-04-07T04:53:46;7.30;99.90
37530;DHT22;23374;52.758;6.872;2023-04-07T04:56:07;7.30;99.90
37530;DHT22;23374;52.758;6.872;2023-04-07T04:58:27;7.30;99.90
37530;DHT22;23374;52.758;6.872;2023-04-07T05:00:48;7.30;99.90
37530;DHT22;23374;52.758;6.872;2023-04-07T05:03:08;7.30;99.90
37530;DHT22;23374;52.758;6.872;2023-04-07T05:05:28;7.30;99.90
37530;DHT22;23374;52.758;6.872;2023-04-07T05:07:49;7.30;99.90
37530;DHT22;23374;52.758;6.872;2023-04-07T05:10:09;7.30;99.90
37530;DHT22;23374;52.758;6.872;2023-04-07T05:12:30;7.30;99.90
37530;DHT22;23374;52.758;6.872;2023-04-07T05:14:50;7.30;99.90
37530;DHT22;23374;52.758;6.872;2023-04-07T05:17:10;7.30;99.90
37530;DHT22;23374;52.758;6.872;2023-04-07T05:19:31;7.30;99.90
37530;DHT22;23374;52.758;6.872;2023-04-07T05:21:52;7.30;99.90
37530;DHT22;23374;52.758;6.872;2023-04-07T05:24:12;7.30;99.90
37530;DHT22;23374;52.758;6.872;2023-04-07T05:26:32;7.30;99.90
37530;DHT22;23374;52.758;6.872;2023-04-07T05:28:52;7.40;99.90
37530;DHT22;23374;52.758;6.872;2023-04-07T05:31:13;7.40;99.90
37530;DHT22;23374;52.758;6.872;2023-04-07T05:33:33;7.40;99.90
37530;DHT22;23374;52.758;6.872;2023-04-07T05:35:53;7.40;99.90
37530;DHT22;23374;52.758;6.872;2023-04-07T05:38:14;7.40;99.90
37530;DHT22;23374;52.758;6.872;2023-04-07T05:40:36;7.40;99.90
37530;DHT22;23374;52.758;6.872;2023-04-07T05:42:57;7.40;99.90
37530;DHT22;23374;52.758;6.872;2023-04-07T05:45:17;7.30;99.90
37530;DHT22;23374;52.758;6.872;2023-04-07T05:47:37;7.40;99.90
37530;DHT22;23374;52.758;6.872;2023-04-07T05:49:58;7.40;99.90
37530;DHT22;23374;52.758;6.872;2023-04-07T05:52:18;7.40;99.90
37530;DHT22;23374;52.758;6.872;2023-04-07T05:54:38;7.40;99.90
37530;DHT22;23374;52.758;6.872;2023-04-07T05:57:02;7.40;99.90
37530;DHT22;23374;52.758;6.872;2023-04-07T05:59:22;7.40;99.90
37530;DHT22;23374;52.758;6.872;2023-04-07T06:01:43;7.40;99.90
37530;DHT22;23374;52.758;6.872;2023-04-07T06:04:04;7.40;99.90
37530;DHT22;23374;52.758;6.872;2023-04-07T06:06:24;7.40;99.90
37530;DHT22;23374;52.758;6.872;2023-04-07T06:08:46;7.40;99.90
37530;DHT22;23374;52.758;6.872;2023-04-07T06:11:06;7.40;99.90
37530;DHT22;23374;52.758;6.872;2023-04-07T06:13:26;7.40;99.90
37530;DHT22;23374;52.758;6.872;2023-04-07T06:15:46;7.50;99.90
37530;DHT22;23374;52.758;6.872;2023-04-07T06:18:06;7.50;99.90
37530;DHT22;23374;52.758;6.872;2023-04-07T06:20:27;7.50;99.90
37530;DHT22;23374;52.758;6.872;2023-04-07T06:22:47;7.50;99.90
37530;DHT22;23374;52.758;6.872;2023-04-07T06:25:08;7.50;99.90
37530;DHT22;23374;52.758;6.872;2023-04-07T06:27:29;7.50;99.90
37530;DHT22;23374;52.758;6.872;2023-04-07T06:29:50;7.50;99.90
37530;DHT22;23374;52.758;6.872;2023-04-07T06:32:10;7.50;99.90
37530;DHT22;23374;52.758;6.872;2023-04-07T06:34:31;7.60;99.90
37530;DHT22;23374;52.758;6.872;2023-04-07T06:36:52;7.60;99.90
37530;DHT22;23374;52.758;6.872;2023-04-07T06:39:13;7.60;99.90
37530;DHT22;23374;52.758;6.872;2023-04-07T06:41:33;7.60;99.90
37530;DHT22;23374;52.758;6.872;2023-04-07T06:43:53;7.60;99.90
37530;DHT22;23374;52.758;6.872;2023-04-07T06:46:14;7.60;99.90
37530;DHT22;23374;52.758;6.872;2023-04-07T06:48:34;7.60;99.90
37530;DHT22;23374;52.758;6.872;2023-04-07T06:50:54;7.60;99.90
37530;DHT22;23374;52.758;6.872;2023-04-07T06:53:15;7.60;99.90
37530;DHT22;23374;52.758;6.872;2023-04-07T06:55:35;7.60;99.90
37530;DHT22;23374;52.758;6.872;2023-04-07T06:57:55;7.60;99.90
37530;DHT22;23374;52.758;6.872;2023-04-07T07:00:16;7.60;99.90
37530;DHT22;23374;52.758;6.872;2023-04-07T07:02:37;7.60;99.90
37530;DHT22;23374;52.758;6.872;2023-04-07T07:04:57;7.60;99.90
37530;DHT22;23374;52.758;6.872;2023-04-07T07:07:17;7.70;99.90
37530;DHT22;23374;52.758;6.872;2023-04-07T07:09:38;7.70;99.90
37530;DHT22;23374;52.758;6.872;2023-04-07T07:11:58;7.70;99.90
37530;DHT22;23374;52.758;6.872;2023-04-07T07:14:21;7.80;99.90
37530;DHT22;23374;52.758;6.872;2023-04-07T07:16:41;7.80;99.90
37530;DHT22;23374;52.758;6.872;2023-04-07T07:19:01;7.80;99.90
37530;DHT22;23374;52.758;6.872;2023-04-07T07:21:22;7.80;99.90
37530;DHT22;23374;52.758;6.872;2023-04-07T07:23:42;7.80;99.90
37530;DHT22;23374;52.758;6.872;2023-04-07T07:26:03;7.80;99.90
37530;DHT22;23374;52.758;6.872;2023-04-07T07:28:24;7.90;99.90
37530;DHT22;23374;52.758;6.872;2023-04-07T07:30:44;7.90;99.90
37530;DHT22;23374;52.758;6.872;2023-04-07T07:33:05;8.00;99.90
37530;DHT22;23374;52.758;6.872;2023-04-07T07:35:25;8.10;99.90
37530;DHT22;23374;52.758;6.872;2023-04-07T07:37:46;8.10;99.90
37530;DHT22;23374;52.758;6.872;2023-04-07T07:40:07;8.10;99.90
37530;DHT22;23374;52.758;6.872;2023-04-07T07:42:29;8.10;99.90
37530;DHT22;23374;52.758;6.872;2023-04-07T07:44:50;8.10;99.90
37530;DHT22;23374;52.758;6.872;2023-04-07T07:47:10;8.20;99.90
37530;DHT22;23374;52.758;6.872;2023-04-07T07:49:31;8.20;99.90
37530;DHT22;23374;52.758;6.872;2023-04-07T07:51:51;8.20;99.90
37530;DHT22;23374;52.758;6.872;2023-04-07T07:54:12;8.30;99.90
37530;DHT22;23374;52.758;6.872;2023-04-07T07:56:32;8.30;99.90
37530;DHT22;23374;52.758;6.872;2023-04-07T07:58:53;8.30;99.90
37530;DHT22;23374;52.758;6.872;2023-04-07T08:01:13;8.40;99.90
37530;DHT22;23374;52.758;6.872;2023-04-07T08:03:33;8.40;99.90
37530;DHT22;23374;52.758;6.872;2023-04-07T08:05:54;8.40;99.90
37530;DHT22;23374;52.758;6.872;2023-04-07T08:08:14;8.40;99.90
37530;DHT22;23374;52.758;6.872;2023-04-07T08:10:34;8.40;99.90
37530;DHT22;23374;52.758;6.872;2023-04-07T08:12:55;8.40;99.90
37530;DHT22;23374;52.758;6.872;2023-04-07T08:15:15;8.40;99.90
37530;DHT22;23374;52.758;6.872;2023-04-07T08:17:37;8.40;99.90
37530;DHT22;23374;52.758;6.872;2023-04-07T08:19:59;8.40;99.90
37530;DHT22;23374;52.758;6.872;2023-04-07T08:22:20;8.40;99.90
37530;DHT22;23374;52.758;6.872;2023-04-07T08:24:40;8.40;99.90
37530;DHT22;23374;52.758;6.872;2023-04-07T08:27:01;8.50;99.90
37530;DHT22;23374;52.758;6.872;2023-04-07T08:29:21;8.50;99.90
37530;DHT22;23374;52.758;6.872;2023-04-07T08:31:41;8.40;99.90
37530;DHT22;23374;52.758;6.872;2023-04-07T08:34:02;8.40;99.90
37530;DHT22;23374;52.758;6.872;2023-04-07T08:36:23;8.40;99.90
37530;DHT22;23374;52.758;6.872;2023-04-07T08:38:43;8.40;99.90
37530;DHT22;23374;52.758;6.872;2023-04-07T08:41:12;8.40;99.90
37530;DHT22;23374;52.758;6.872;2023-04-07T08:43:36;8.50;99.90
37530;DHT22;23374;52.758;6.872;2023-04-07T08:45:59;8.50;99.90
37530;DHT22;23374;52.758;6.872;2023-04-07T08:48:22;8.60;99.90
37530;DHT22;23374;52.758;6.872;2023-04-07T08:50:44;8.60;99.90
37530;DHT22;23374;52.758;6.872;2023-04-07T08:53:06;8.70;99.90
37530;DHT22;23374;52.758;6.872;2023-04-07T08:55:28;8.80;99.90
37530;DHT22;23374;52.758;6.872;2023-04-07T08:57:48;8.80;99.90
37530;DHT22;23374;52.758;6.872;2023-04-07T09:00:10;8.80;99.90
37530;DHT22;23374;52.758;6.872;2023-04-07T09:02:39;8.90;99.90
37530;DHT22;23374;52.758;6.872;2023-04-07T09:05:03;8.90;99.90
37530;DHT22;23374;52.758;6.872;2023-04-07T09:07:24;8.90;99.90
37530;DHT22;23374;52.758;6.872;2023-04-07T09:09:45;8.90;99.90
37530;DHT22;23374;52.758;6.872;2023-04-07T09:12:06;9.00;99.90
37530;DHT22;23374;52.758;6.872;2023-04-07T09:14:27;9.00;99.90
37530;DHT22;23374;52.758;6.872;2023-04-07T09:16:48;9.00;99.90
37530;DHT22;23374;52.758;6.872;2023-04-07T09:19:09;9.00;99.90
37530;DHT22;23374;52.758;6.872;2023-04-07T09:21:52;9.10;99.90
37530;DHT22;23374;52.758;6.872;2023-04-07T09:24:27;9.10;99.90
37530;DHT22;23374;52.758;6.872;2023-04-07T09:26:47;9.10;99.90
37530;DHT22;23374;52.758;6.872;2023-04-07T09:29:07;9.20;99.90
37530;DHT22;23374;52.758;6.872;2023-04-07T09:31:46;9.20;99.90
37530;DHT22;23374;52.758;6.872;2023-04-07T09:34:23;9.20;99.90
37530;DHT22;23374;52.758;6.872;2023-04-07T09:36:44;9.20;99.90
37530;DHT22;23374;52.758;6.872;2023-04-07T09:39:08;9.30;99.90
37530;DHT22;23374;52.758;6.872;2023-04-07T09:41:28;9.30;99.90
37530;DHT22;23374;52.758;6.872;2023-04-07T09:43:56;9.40;99.90
37530;DHT22;23374;52.758;6.872;2023-04-07T09:46:17;9.50;99.90
37530;DHT22;23374;52.758;6.872;2023-04-07T09:48:43;9.50;99.90
37530;DHT22;23374;52.758;6.872;2023-04-07T09:51:15;9.60;99.90
37530;DHT22;23374;52.758;6.872;2023-04-07T09:53:50;9.70;99.90
37530;DHT22;23374;52.758;6.872;2023-04-07T09:56:12;9.70;99.90
37530;DHT22;23374;52.758;6.872;2023-04-07T09:58:34;9.80;99.90
37530;DHT22;23374;52.758;6.872;2023-04-07T10:00:57;9.90;99.90
37530;DHT22;23374;52.758;6.872;2023-04-07T10:03:18;10.00;99.90
37530;DHT22;23374;52.758;6.872;2023-04-07T10:05:38;10.10;99.90
37530;DHT22;23374;52.758;6.872;2023-04-07T10:08:00;10.30;99.90
37530;DHT22;23374;52.758;6.872;2023-04-07T10:10:21;10.30;93.50
37530;DHT22;23374;52.758;6.872;2023-04-07T10:12:41;10.30;62.60
37530;DHT22;23374;52.758;6.872;2023-04-07T10:15:03;10.30;45.90
37530;DHT22;23374;52.758;6.872;2023-04-07T10:17:23;10.30;42.10
37530;DHT22;23374;52.758;6.872;2023-04-07T10:19:45;10.30;38.80
37530;DHT22;23374;52.758;6.872;2023-04-07T10:22:06;10.20;13.60
37530;DHT22;23374;52.758;6.872;2023-04-07T10:25:11;10.10;50.50
37530;DHT22;23374;52.758;6.872;2023-04-07T10:27:38;10.00;59.40
37530;DHT22;23374;52.758;6.872;2023-04-07T10:30:00;9.90;64.40
37530;DHT22;23374;52.758;6.872;2023-04-07T10:32:23;9.80;94.30
37530;DHT22;23374;52.758;6.872;2023-04-07T10:35:02;9.80;99.90
37530;DHT22;23374;52.758;6.872;2023-04-07T10:37:25;9.70;99.90
37530;DHT22;23374;52.758;6.872;2023-04-07T10:39:46;9.60;99.90
37530;DHT22;23374;52.758;6.872;2023-04-07T10:42:06;9.60;99.90
37530;DHT22;23374;52.758;6.872;2023-04-07T10:44:46;9.60;99.90
37530;DHT22;23374;52.758;6.872;2023-04-07T10:47:08;9.60;99.90
37530;DHT22;23374;52.758;6.872;2023-04-07T10:49:29;9.60;99.90
37530;DHT22;23374;52.758;6.872;2023-04-07T10:52:26;9.60;99.90
37530;DHT22;23374;52.758;6.872;2023-04-07T10:54:47;9.70;99.90
37530;DHT22;23374;52.758;6.872;2023-04-07T10:58:22;9.70;99.90
37530;DHT22;23374;52.758;6.872;2023-04-07T11:01:16;9.70;99.90
37530;DHT22;23374;52.758;6.872;2023-04-07T11:03:40;9.80;99.90
37530;DHT22;23374;52.758;6.872;2023-04-07T11:06:14;9.80;99.90
37530;DHT22;23374;52.758;6.872;2023-04-07T11:08:39;9.80;96.60
37530;DHT22;23374;52.758;6.872;2023-04-07T11:11:05;9.80;54.40
37530;DHT22;23374;52.758;6.872;2023-04-07T11:13:49;9.80;47.60
37530;DHT22;23374;52.758;6.872;2023-04-07T11:16:15;9.80;29.10
37530;DHT22;23374;52.758;6.872;2023-04-07T11:18:36;9.80;24.30
37530;DHT22;23374;52.758;6.872;2023-04-07T11:20:57;9.80;22.40
37530;DHT22;23374;52.758;6.872;2023-04-07T11:23:20;9.80;39.10
37530;DHT22;23374;52.758;6.872;2023-04-07T11:25:47;9.80;36.80
37530;DHT22;23374;52.758;6.872;2023-04-07T11:28:10;9.90;50.20
37530;DHT22;23374;52.758;6.872;2023-04-07T11:30:32;9.90;26.60
37530;DHT22;23374;52.758;6.872;2023-04-07T11:32:52;9.90;38.90
37530;DHT22;23374;52.758;6.872;2023-04-07T11:35:13;9.90;10.90
37530;DHT22;23374;52.758;6.872;2023-04-07T11:37:35;9.90;2.80
37530;DHT22;23374;52.758;6.872;2023-04-07T11:39:57;9.90;1.00
37530;DHT22;23374;52.758;6.872;2023-04-07T11:42:39;9.90;1.00
37530;DHT22;23374;52.758;6.872;2023-04-07T11:45:00;9.90;1.00
37530;DHT22;23374;52.758;6.872;2023-04-07T11:47:20;9.90;1.00
37530;DHT22;23374;52.758;6.872;2023-04-07T11:49:45;9.90;1.00
37530;DHT22;23374;52.758;6.872;2023-04-07T11:52:06;10.00;1.00
37530;DHT22;23374;52.758;6.872;2023-04-07T11:54:27;10.00;1.00
37530;DHT22;23374;52.758;6.872;2023-04-07T11:56:47;10.10;1.00
37530;DHT22;23374;52.758;6.872;2023-04-07T11:59:07;10.10;1.00
37530;DHT22;23374;52.758;6.872;2023-04-07T12:01:40;10.10;1.00
37530;DHT22;23374;52.758;6.872;2023-04-07T12:04:02;10.10;1.00
37530;DHT22;23374;52.758;6.872;2023-04-07T12:06:34;10.20;1.00
37530;DHT22;23374;52.758;6.872;2023-04-07T12:09:01;10.20;1.00
37530;DHT22;23374;52.758;6.872;2023-04-07T12:11:22;10.20;1.00
37530;DHT22;23374;52.758;6.872;2023-04-07T12:13:42;10.20;1.00
37530;DHT22;23374;52.758;6.872;2023-04-07T12:16:03;10.30;1.00
37530;DHT22;23374;52.758;6.872;2023-04-07T12:18:24;10.30;1.00
37530;DHT22;23374;52.758;6.872;2023-04-07T12:20:44;10.30;1.00
37530;DHT22;23374;52.758;6.872;2023-04-07T12:23:05;10.40;1.00
37530;DHT22;23374;52.758;6.872;2023-04-07T12:25:26;10.40;1.00
37530;DHT22;23374;52.758;6.872;2023-04-07T12:27:47;10.50;1.00
37530;DHT22;23374;52.758;6.872;2023-04-07T12:30:08;10.60;1.00
37530;DHT22;23374;52.758;6.872;2023-04-07T12:32:28;10.70;1.00
37530;DHT22;23374;52.758;6.872;2023-04-07T12:34:49;10.80;1.00
37530;DHT22;23374;52.758;6.872;2023-04-07T12:37:10;10.90;1.00
37530;DHT22;23374;52.758;6.872;2023-04-07T12:39:30;10.90;1.00
37530;DHT22;23374;52.758;6.872;2023-04-07T12:41:52;11.00;1.00
37530;DHT22;23374;52.758;6.872;2023-04-07T12:44:14;11.10;99.90
37530;DHT22;23374;52.758;6.872;2023-04-07T12:46:34;11.10;99.90
37530;DHT22;23374;52.758;6.872;2023-04-07T12:48:55;11.20;99.90
37530;DHT22;23374;52.758;6.872;2023-04-07T12:51:15;11.30;99.90
37530;DHT22;23374;52.758;6.872;2023-04-07T12:53:36;11.40;99.90
37530;DHT22;23374;52.758;6.872;2023-04-07T12:55:56;11.40;99.90
37530;DHT22;23374;52.758;6.872;2023-04-07T12:58:17;11.60;99.90
37530;DHT22;23374;52.758;6.872;2023-04-07T13:00:37;11.70;99.90
37530;DHT22;23374;52.758;6.872;2023-04-07T13:02:58;11.80;76.10
37530;DHT22;23374;52.758;6.872;2023-04-07T13:05:19;11.90;1.00
37530;DHT22;23374;52.758;6.872;2023-04-07T13:07:39;11.90;1.00
37530;DHT22;23374;52.758;6.872;2023-04-07T13:09:59;12.00;99.90
37530;DHT22;23374;52.758;6.872;2023-04-07T13:12:20;12.00;99.90
37530;DHT22;23374;52.758;6.872;2023-04-07T13:14:41;12.00;99.90
37530;DHT22;23374;52.758;6.872;2023-04-07T13:17:01;12.10;1.00
37530;DHT22;23374;52.758;6.872;2023-04-07T13:19:22;12.00;99.90
37530;DHT22;23374;52.758;6.872;2023-04-07T13:21:43;12.00;99.90
37530;DHT22;23374;52.758;6.872;2023-04-07T13:24:03;12.00;1.00
37530;DHT22;23374;52.758;6.872;2023-04-07T13:26:24;12.10;99.90
37530;DHT22;23374;52.758;6.872;2023-04-07T13:28:45;12.10;1.00
37530;DHT22;23374;52.758;6.872;2023-04-07T13:31:07;12.20;99.90
37530;DHT22;23374;52.758;6.872;2023-04-07T13:33:27;12.20;99.90
37530;DHT22;23374;52.758;6.872;2023-04-07T13:35:47;12.30;1.00
37530;DHT22;23374;52.758;6.872;2023-04-07T13:38:07;12.40;1.00
37530;DHT22;23374;52.758;6.872;2023-04-07T13:40:29;12.40;1.00
37530;DHT22;23374;52.758;6.872;2023-04-07T13:42:49;12.50;1.00
37530;DHT22;23374;52.758;6.872;2023-04-07T13:45:09;12.60;1.00
37530;DHT22;23374;52.758;6.872;2023-04-07T13:47:30;12.70;1.00
37530;DHT22;23374;52.758;6.872;2023-04-07T13:49:53;12.70;11.60
37530;DHT22;23374;52.758;6.872;2023-04-07T13:52:13;12.80;1.00
37530;DHT22;23374;52.758;6.872;2023-04-07T13:54:34;12.90;1.00
37530;DHT22;23374;52.758;6.872;2023-04-07T13:56:55;12.90;99.90
37530;DHT22;23374;52.758;6.872;2023-04-07T13:59:15;12.90;99.90
37530;DHT22;23374;52.758;6.872;2023-04-07T14:01:35;12.90;1.00
37530;DHT22;23374;52.758;6.872;2023-04-07T14:03:58;12.90;99.90
37530;DHT22;23374;52.758;6.872;2023-04-07T14:06:19;12.90;99.90
37530;DHT22;23374;52.758;6.872;2023-04-07T14:08:42;12.90;1.00
37530;DHT22;23374;52.758;6.872;2023-04-07T14:11:02;12.90;41.00
37530;DHT22;23374;52.758;6.872;2023-04-07T14:13:22;12.90;99.90
37530;DHT22;23374;52.758;6.872;2023-04-07T14:15:43;13.10;99.90
37530;DHT22;23374;52.758;6.872;2023-04-07T14:18:03;13.10;12.90
37530;DHT22;23374;52.758;6.872;2023-04-07T14:20:23;13.10;99.90
37530;DHT22;23374;52.758;6.872;2023-04-07T14:22:44;13.20;1.00
37530;DHT22;23374;52.758;6.872;2023-04-07T14:25:05;13.30;99.90
37530;DHT22;23374;52.758;6.872;2023-04-07T14:27:26;13.30;1.00
37530;DHT22;23374;52.758;6.872;2023-04-07T14:29:49;13.40;99.90
37530;DHT22;23374;52.758;6.872;2023-04-07T14:32:09;13.40;1.00
37530;DHT22;23374;52.758;6.872;2023-04-07T14:34:31;13.40;1.00
37530;DHT22;23374;52.758;6.872;2023-04-07T14:36:55;13.40;1.00
37530;DHT22;23374;52.758;6.872;2023-04-07T14:39:17;13.30;53.50
37530;DHT22;23374;52.758;6.872;2023-04-07T14:41:38;13.20;1.00
37530;DHT22;23374;52.758;6.872;2023-04-07T14:43:59;13.20;1.00
37530;DHT22;23374;52.758;6.872;2023-04-07T14:46:20;13.10;1.00
37530;DHT22;23374;52.758;6.872;2023-04-07T14:48:40;13.10;1.00
37530;DHT22;23374;52.758;6.872;2023-04-07T14:51:01;13.10;1.00
37530;DHT22;23374;52.758;6.872;2023-04-07T14:53:22;13.10;1.00
37530;DHT22;23374;52.758;6.872;2023-04-07T14:55:42;13.10;1.00
37530;DHT22;23374;52.758;6.872;2023-04-07T14:58:03;13.20;1.00
37530;DHT22;23374;52.758;6.872;2023-04-07T15:00:23;13.20;1.00
37530;DHT22;23374;52.758;6.872;2023-04-07T15:02:46;13.20;1.00
37530;DHT22;23374;52.758;6.872;2023-04-07T15:05:07;13.20;99.90
37530;DHT22;23374;52.758;6.872;2023-04-07T15:07:28;13.20;1.00
37530;DHT22;23374;52.758;6.872;2023-04-07T15:09:48;13.20;1.00
37530;DHT22;23374;52.758;6.872;2023-04-07T15:12:08;13.20;1.00
37530;DHT22;23374;52.758;6.872;2023-04-07T15:14:29;13.20;1.00
37530;DHT22;23374;52.758;6.872;2023-04-07T15:16:49;13.30;1.00